New Orleans, Louisiana
Traffic Map
Current Weather Conditions
New Orleans, Louisiana
Scattered Clouds
Scattered Clouds
82°
Feels Like: 89°
Wind Chill: 82° Ceiling: Unl
Heat Index: 89° Visibility: 10mi
Dew Point: 75° Wind: 3mph
Humidity: 79% Direction: 180° (S)
Pressure: 29.96in Gusts: 0mph
Raw Report DataK7N0 040335Z AUTO 18003KT 10SM SCT021 28/24 A2996 RMK AO1
Traffic Incident Summary
Active as of:
Severity:
Category:
InformationThere was an issue retrieving the traffic information for this location. Please try a different location or try again shortly.
Advertisements
Track Severe Weather on mobile